Time;durP1;ratioP1;P1;durP2;ratioP2;P2;SDS_P1;SDS_P2;PMS_P1;PMS_P2;Temp;Humidity;BMP_temperature;BMP_pressure;BME280_temperature;BME280_humidity;BME280_pressure;Samples;Min_cycle;Max_cycle;Signal;HPM_P1;HPM_P2
2021/08/27 00:01:25;;;;;;;5.90;2.70;;;;;;;11.94;77.85;95423.94;4989027;28;20689;-79
2021/08/27 00:04:02;;;;;;;5.17;3.03;;;;;;;11.97;77.94;95435.81;5016814;28;20206;-80
2021/08/27 00:10:00;;;;;;;8.07;3.27;;;;;;;11.97;78.28;95425.41;5017241;28;20248;-79
2021/08/27 00:13:00;;;;;;;;;;;;;;;;;;;;;
2021/08/27 00:15:44;;;;;;;;;;;;;;;;;;;;;
2021/08/27 00:18:12;;;;;;;4.23;2.93;;;;;;;12.01;78.16;95418.91;5032880;28;20206;-79
2021/08/27 00:21:23;;;;;;;4.27;2.90;;;;;;;12.07;77.98;95419.09;5035469;28;20183;-79
2021/08/27 00:24:06;;;;;;;7.37;3.50;;;;;;;12.04;78.02;95416.00;5019478;28;20211;-79
2021/08/27 00:27:01;;;;;;;7.13;3.17;;;;;;;12.07;78.18;95413.88;5017785;28;20199;-79
2021/08/27 00:29:57;;;;;;;8.27;3.30;;;;;;;12.05;78.16;95421.03;5033516;28;20197;-79
2021/08/27 00:32:37;;;;;;;7.00;3.30;;;;;;;12.04;78.10;95421.19;5013853;28;20218;-78
2021/08/27 00:35:39;;;;;;;6.63;3.27;;;;;;;11.98;78.59;95419.22;5051289;28;20179;-78
2021/08/27 00:38:25;;;;;;;3.63;3.00;;;;;;;11.96;78.57;95418.59;5041248;28;20225;-78
2021/08/27 00:41:13;;;;;;;6.20;3.00;;;;;;;11.87;79.00;95422.94;5036911;28;20194;-77
2021/08/27 00:47:44;;;;;;;;;;;;;;;;;;;;;
2021/08/27 00:50:35;;;;;;;4.40;3.30;;;;;;;12.02;78.52;95426.56;5048447;28;20205;-78
2021/08/27 00:53:13;;;;;;;6.50;3.33;;;;;;;11.94;78.92;95423.94;5033735;28;20182;-79
2021/08/27 00:56:13;;;;;;;5.10;3.27;;;;;;;11.97;79.15;95428.00;5002476;28;20683;-79
2021/08/27 00:58:48;;;;;;;7.57;3.53;;;;;;;11.91;79.14;95424.25;5003057;28;20602;-79
2021/08/27 01:01:56;;;;;;;7.03;3.47;;;;;;;11.96;79.13;95426.38;5023217;28;20566;-78
2021/08/27 01:04:31;;;;;;;5.67;3.37;;;;;;;11.98;78.71;95420.03;5004856;28;20229;-78
2021/08/27 01:07:32;;;;;;;6.20;3.03;;;;;;;11.97;79.11;95423.63;5019917;28;20182;-78
2021/08/27 01:10:30;;;;;;;7.23;3.30;;;;;;;12.01;78.98;95422.31;5035039;28;20181;-78
2021/08/27 01:14:06;;;;;;;;;;;;;;;;;;;;;
2021/08/27 01:17:15;;;;;;;4.73;3.03;;;;;;;11.97;79.03;95421.03;4975499;28;20191;-78
2021/08/27 01:20:06;;;;;;;6.87;3.27;;;;;;;11.98;79.27;95421.81;4918302;29;20218;-78
2021/08/27 01:23:38;;;;;;;5.97;3.20;;;;;;;11.96;79.16;95423.78;4916265;29;20580;-78
2021/08/27 01:26:47;;;;;;;4.97;3.20;;;;;;;11.96;79.58;95424.59;4824681;29;20224;-78
2021/08/27 01:30:23;;;;;;;4.63;3.10;;;;;;;11.97;79.38;95426.22;4812458;29;20229;-78
2021/08/27 01:33:03;;;;;;;4.90;3.57;;;;;;;11.97;79.47;95434.03;4824152;29;20195;-79
2021/08/27 01:35:46;;;;;;;7.10;4.13;;;;;;;11.94;79.99;95423.94;4814042;29;20246;-79
2021/08/27 01:38:42;;;;;;;8.00;3.53;;;;;;;11.94;79.83;95428.34;4824115;29;20252;-79
2021/08/27 01:41:38;;;;;;;6.07;3.50;;;;;;;11.88;80.16;95429.78;4824679;29;20198;-77
2021/08/27 01:44:43;;;;;;;5.40;3.13;;;;;;;11.91;80.18;95435.47;4814487;29;20302;-77
2021/08/27 01:47:31;;;;;;;9.33;4.37;;;;;;;11.89;80.41;95434.00;4810127;29;20205;-79
2021/08/27 01:50:31;;;;;;;8.77;3.77;;;;;;;11.91;80.26;95432.06;4823567;29;20232;-76
2021/08/27 01:53:09;;;;;;;7.60;3.80;;;;;;;11.87;80.40;95433.34;4747026;30;20208;-77
2021/08/27 01:56:01;;;;;;;7.77;4.47;;;;;;;11.86;80.48;95427.34;4769910;30;20211;-78
2021/08/27 02:02:03;;;;;;;8.43;4.10;;;;;;;11.83;81.20;95424.22;4860545;29;20218;-77
2021/08/27 02:04:43;;;;;;;6.73;3.80;;;;;;;11.82;81.19;95422.59;4901154;29;20221;-78
2021/08/27 02:07:29;;;;;;;7.53;4.00;;;;;;;11.81;81.24;95428.78;4901553;29;20250;-78
2021/08/27 02:10:18;;;;;;;6.07;3.57;;;;;;;11.82;81.32;95433.81;4916333;29;20199;-78
2021/08/27 02:13:29;;;;;;;6.40;3.80;;;;;;;11.83;81.13;95432.03;4901222;29;20884;-77
2021/08/27 02:15:59;;;;;;;7.30;4.17;;;;;;;11.75;81.73;95432.81;4905571;29;20223;-78
2021/08/27 02:18:48;;;;;;;5.43;4.00;;;;;;;11.77;81.40;95436.06;4900509;29;20222;-78
2021/08/27 02:24:30;;;;;;;6.87;4.07;;;;;;;11.72;81.90;95427.91;4903291;29;20218;-78
2021/08/27 02:31:37;;;;;;;5.30;3.90;;;;;;;11.74;82.46;95438.13;4993981;28;20219;-77
2021/08/27 02:34:27;;;;;;;6.90;4.13;;;;;;;11.70;82.61;95436.84;4934568;29;20205;-77
2021/08/27 02:37:22;;;;;;;;;;;;;;;;;;;;;
2021/08/27 02:40:02;;;;;;;7.50;4.50;;;;;;;11.63;82.71;95442.66;4920577;29;20705;-77
2021/08/27 02:42:46;;;;;;;9.00;4.33;;;;;;;11.56;83.20;95441.66;4919200;29;20276;-78
2021/08/27 02:45:55;;;;;;;9.20;4.43;;;;;;;11.60;82.91;95447.38;4936974;29;20193;-78
2021/08/27 02:48:51;;;;;;;6.47;4.27;;;;;;;11.66;82.36;95438.09;4877289;29;20246;-78
2021/08/27 02:54:29;;;;;;;9.87;6.17;;;;;;;11.54;83.78;95443.59;4862596;29;20191;-79
2021/08/27 02:57:09;;;;;;;9.30;6.47;;;;;;;11.47;84.99;95439.97;4877415;29;20200;-80
2021/08/27 03:00:15;;;;;;;10.30;7.40;;;;;;;11.36;85.78;95448.06;4845253;29;20257;-79
2021/08/27 03:49:18;;;;;;;8.93;6.50;;;;;;;10.98;89.42;95433.72;4877381;29;20642;-79
2021/08/27 03:56:42;;;;;;;8.00;5.67;;;;;;;11.05;89.46;95435.56;4840843;29;20584;-80
2021/08/27 04:10:20;;;;;;;8.03;6.00;;;;;;;10.96;88.56;95441.66;5061995;22;20256;-79
2021/08/27 04:16:23;;;;;;;10.10;6.37;;;;;;;10.93;88.60;95449.75;4972320;28;20302;-80
2021/08/27 04:18:49;;;;;;;8.67;6.03;;;;;;;10.97;88.77;95447.69;4967514;28;20239;-80
2021/08/27 04:21:14;;;;;;;9.67;6.77;;;;;;;10.90;88.82;95454.44;4957227;28;20247;-78
2021/08/27 04:23:39;;;;;;;13.33;7.13;;;;;;;10.90;88.58;95452.66;4956783;28;20255;-79
2021/08/27 04:26:05;;;;;;;9.80;7.10;;;;;;;10.85;88.60;95457.47;4974151;28;20224;-79
2021/08/27 04:28:30;;;;;;;8.70;6.83;;;;;;;10.75;89.13;95454.97;4961008;28;20704;-79
2021/08/27 04:30:55;;;;;;;8.87;6.90;;;;;;;10.88;89.61;95458.97;4945546;28;20184;-78
2021/08/27 04:33:21;;;;;;;8.23;7.33;;;;;;;10.93;89.52;95460.13;4961047;28;20193;-80
2021/08/27 04:35:46;;;;;;;9.13;6.63;;;;;;;10.98;88.94;95463.09;4945853;28;20199;-78
2021/08/27 04:38:11;;;;;;;8.03;7.23;;;;;;;10.93;88.90;95462.75;4961325;28;20192;-80
2021/08/27 04:40:37;;;;;;;11.83;6.90;;;;;;;10.90;89.06;95468.25;4945486;28;20185;-80
2021/08/27 04:43:02;;;;;;;11.40;7.33;;;;;;;10.96;89.18;95464.25;4960197;28;20212;-80
2021/08/27 04:45:27;;;;;;;10.43;7.33;;;;;;;10.93;89.26;95465.34;4942344;29;20225;-80
2021/08/27 04:47:53;;;;;;;11.13;6.37;;;;;;;10.94;88.96;95471.34;4957374;29;20276;-78
2021/08/27 04:50:18;;;;;;;11.87;6.83;;;;;;;10.97;88.67;95468.47;4957218;29;20237;-78
2021/08/27 04:52:43;;;;;;;9.03;7.10;;;;;;;11.03;88.85;95475.63;4994790;28;20191;-78
2021/08/27 04:55:09;;;;;;;7.93;6.80;;;;;;;11.01;88.39;95475.78;5019711;28;20262;-78
2021/08/27 04:57:39;;;;;;;9.50;6.70;;;;;;;11.01;88.77;95472.38;5019189;28;20261;-79
2021/08/27 05:00:08;;;;;;;10.53;6.80;;;;;;;10.99;89.05;95477.72;5003714;28;20181;-78
2021/08/27 05:02:33;;;;;;;8.83;6.27;;;;;;;11.01;89.12;95481.00;5019294;28;20289;-78
2021/08/27 05:04:58;;;;;;;10.73;6.40;;;;;;;11.00;88.86;95481.16;5019584;28;20265;-77
2021/08/27 05:07:24;;;;;;;9.63;6.73;;;;;;;11.06;89.01;95481.34;5019295;28;20198;-78
2021/08/27 05:09:49;;;;;;;11.83;7.40;;;;;;;11.05;88.93;95491.91;5019664;28;20189;-78
2021/08/27 05:12:14;;;;;;;11.23;7.23;;;;;;;11.03;88.92;95494.63;5029721;28;20186;-77
2021/08/27 05:14:55;;;;;;;8.97;6.67;;;;;;;11.10;88.70;95492.25;5049117;28;20185;-77
2021/08/27 05:17:20;;;;;;;8.87;6.83;;;;;;;11.09;89.18;95495.00;5039613;28;20259;-79
2021/08/27 05:19:46;;;;;;;14.53;7.87;;;;;;;11.10;88.65;95494.84;5056770;28;20178;-78
2021/08/27 05:22:11;;;;;;;7.67;6.73;;;;;;;11.08;88.86;95494.19;5053621;28;20178;-77
2021/08/27 05:24:36;;;;;;;9.53;7.47;;;;;;;11.01;88.96;95493.97;5020856;28;20777;-76
2021/08/27 05:27:02;;;;;;;13.93;9.33;;;;;;;11.00;88.65;95496.72;5054909;28;20178;-77
2021/08/27 05:29:27;;;;;;;12.60;9.40;;;;;;;11.04;88.45;95498.06;5036842;28;20178;-76
2021/08/27 05:31:53;;;;;;;11.27;9.03;;;;;;;11.08;88.68;95499.38;5036885;28;20224;-76
2021/08/27 05:34:19;;;;;;;13.73;9.80;;;;;;;11.00;88.96;95500.16;5037609;28;20274;-77
2021/08/27 05:36:45;;;;;;;13.67;9.30;;;;;;;11.04;88.50;95503.25;5027443;28;20549;-77
2021/08/27 05:39:10;;;;;;;11.73;10.13;;;;;;;11.00;88.85;95507.94;5050517;28;20213;-77
2021/08/27 05:41:35;;;;;;;15.20;10.40;;;;;;;11.00;89.68;95514.91;5036999;28;20196;-77
2021/08/27 05:44:01;;;;;;;14.17;10.80;;;;;;;11.03;89.48;95507.63;5046436;28;20202;-77
2021/08/27 05:46:26;;;;;;;17.97;10.27;;;;;;;11.14;89.49;95509.19;5018356;28;20170;-77
2021/08/27 05:48:51;;;;;;;13.37;10.80;;;;;;;11.09;88.79;95513.19;5017484;28;20209;-77
2021/08/27 05:51:17;;;;;;;16.57;10.83;;;;;;;11.06;89.11;95517.75;5036878;28;20187;-77
2021/08/27 05:53:42;;;;;;;15.87;11.43;;;;;;;11.10;88.83;95522.63;5053899;28;20174;-78
2021/08/27 05:56:07;;;;;;;19.27;11.60;;;;;;;11.03;89.09;95523.22;5054104;28;20182;-77
2021/08/27 05:58:32;;;;;;;19.17;12.07;;;;;;;11.05;89.40;95525.69;5035448;28;20681;-77
2021/08/27 06:00:58;;;;;;;17.83;12.83;;;;;;;11.10;89.13;95520.03;5053957;28;20306;-77
2021/08/27 06:03:23;;;;;;;14.13;12.63;;;;;;;11.02;89.25;95519.00;5051488;28;20202;-75
2021/08/27 06:05:48;;;;;;;19.00;14.30;;;;;;;10.98;89.14;95522.06;5051442;28;20319;-74
2021/08/27 06:08:14;;;;;;;19.07;13.77;;;;;;;11.01;89.48;95524.34;5052787;28;20597;-74
2021/08/27 06:10:39;;;;;;;17.50;13.00;;;;;;;11.11;89.60;95522.47;5046379;28;20182;-76
2021/08/27 06:13:04;;;;;;;15.63;13.20;;;;;;;11.18;88.98;95530.47;5016175;28;20210;-80
2021/08/27 06:15:30;;;;;;;15.77;12.77;;;;;;;10.99;88.97;95534.91;5017004;28;20201;-79
2021/08/27 06:17:55;;;;;;;17.00;13.10;;;;;;;10.97;89.31;95543.81;5001042;28;20210;-77
2021/08/27 06:20:20;;;;;;;15.63;11.97;;;;;;;11.06;88.94;95543.72;5001057;28;20593;-78
2021/08/27 06:22:46;;;;;;;11.37;10.17;;;;;;;11.11;88.81;95548.47;5000837;28;20178;-79
2021/08/27 06:25:11;;;;;;;11.93;10.27;;;;;;;11.10;88.92;95553.81;5017376;28;20281;-78
2021/08/27 06:27:36;;;;;;;13.57;8.63;;;;;;;11.04;88.37;95553.47;5044531;28;20202;-80
2021/08/27 06:30:04;;;;;;;11.90;8.63;;;;;;;11.23;88.12;95544.66;5037581;28;20178;-79
2021/08/27 06:32:29;;;;;;;11.40;7.87;;;;;;;11.24;87.16;95554.09;5053166;28;20178;-78
2021/08/27 06:34:55;;;;;;;12.33;8.60;;;;;;;11.29;87.08;95551.84;5049002;28;20538;-79
2021/08/27 06:37:21;;;;;;;13.53;9.13;;;;;;;11.39;86.47;95554.34;5037007;28;20571;-79
2021/08/27 06:39:47;;;;;;;11.23;7.70;;;;;;;11.22;86.39;95560.38;5046889;28;20181;-78
2021/08/27 06:42:12;;;;;;;12.30;8.70;;;;;;;11.50;85.95;95558.50;5072310;28;20181;-78
2021/08/27 06:44:37;;;;;;;10.33;8.13;;;;;;;11.60;85.90;95556.59;5045464;28;20199;-80
2021/08/27 06:47:03;;;;;;;9.53;7.30;;;;;;;11.73;85.02;95564.81;5038737;28;20183;-80
2021/08/27 06:49:28;;;;;;;10.73;8.23;;;;;;;11.77;84.09;95566.13;5018726;28;20190;-79
2021/08/27 06:51:53;;;;;;;10.63;7.70;;;;;;;11.89;83.67;95558.91;5036401;28;20625;-78
2021/08/27 06:54:19;;;;;;;12.67;8.57;;;;;;;12.12;82.49;95557.41;5020220;28;20181;-78
2021/08/27 06:56:44;;;;;;;12.27;9.50;;;;;;;12.21;80.64;95565.25;5034971;28;20277;-79
2021/08/27 06:59:09;;;;;;;11.30;9.20;;;;;;;12.53;81.48;95565.31;5017230;28;20202;-78
2021/08/27 07:01:35;;;;;;;16.03;10.90;;;;;;;12.63;80.43;95565.19;5034137;28;20202;-78
2021/08/27 07:04:00;;;;;;;14.73;10.27;;;;;;;12.72;80.05;95564.22;5019762;28;20195;-78
2021/08/27 07:06:25;;;;;;;15.43;11.70;;;;;;;12.56;79.81;95562.41;5003344;28;20240;-78
2021/08/27 07:08:51;;;;;;;12.87;11.33;;;;;;;12.70;80.44;95568.78;5021123;28;20289;-78
2021/08/27 07:11:16;;;;;;;12.87;10.40;;;;;;;12.72;80.12;95574.63;5030000;28;20650;-78
2021/08/27 07:13:45;;;;;;;14.27;11.20;;;;;;;12.68;79.67;95566.34;5055225;28;20197;-78
2021/08/27 07:16:11;;;;;;;13.03;9.90;;;;;;;12.56;79.92;95564.22;5056687;28;20174;-78
2021/08/27 07:18:39;;;;;;;12.07;10.87;;;;;;;12.57;79.33;95565.84;5035571;28;20212;-78
2021/08/27 07:21:04;;;;;;;11.70;10.50;;;;;;;12.63;79.00;95571.22;5039276;28;20184;-82
2021/08/27 07:23:30;;;;;;;14.53;10.87;;;;;;;12.58;78.45;95573.50;5036333;28;20284;-82
2021/08/27 07:25:55;;;;;;;12.10;9.13;;;;;;;12.54;77.64;95573.94;5021520;28;20192;-81
2021/08/27 07:28:20;;;;;;;10.10;8.23;;;;;;;12.77;77.38;95573.19;5037990;28;20193;-77
2021/08/27 07:30:46;;;;;;;14.03;8.20;;;;;;;13.22;76.35;95576.38;5054766;28;20178;-78
2021/08/27 07:33:11;;;;;;;10.43;7.30;;;;;;;13.16;75.43;95572.56;5038968;28;20170;-78
2021/08/27 07:35:36;;;;;;;9.97;6.80;;;;;;;13.49;74.74;95572.59;5039930;28;20177;-78
2021/08/27 07:38:02;;;;;;;6.90;5.90;;;;;;;13.29;74.55;95578.16;5039240;28;20190;-79
2021/08/27 07:40:28;;;;;;;8.20;6.27;;;;;;;13.53;74.29;95571.31;5040508;28;20184;-79
2021/08/27 07:42:53;;;;;;;7.07;5.90;;;;;;;13.64;74.12;95581.41;5026053;28;20243;-78
2021/08/27 07:45:18;;;;;;;7.17;6.30;;;;;;;13.40;73.83;95579.63;5038918;28;20213;-79
2021/08/27 07:47:44;;;;;;;8.83;6.50;;;;;;;13.41;74.03;95588.25;5038041;28;20700;-79
2021/08/27 07:50:11;;;;;;;10.67;6.70;;;;;;;13.40;73.13;95599.66;5008178;28;20184;-77
2021/08/27 07:52:37;;;;;;;11.37;7.70;;;;;;;13.48;71.61;95597.88;5040404;28;20170;-78
2021/08/27 07:55:03;;;;;;;8.40;5.97;;;;;;;13.42;71.51;95590.69;5032604;28;20233;-78
2021/08/27 07:57:29;;;;;;;7.53;5.30;;;;;;;13.33;72.22;95594.28;5035683;28;20202;-78
2021/08/27 07:59:54;;;;;;;5.67;4.27;;;;;;;13.56;71.63;95591.84;5015264;28;20179;-78
2021/08/27 08:02:19;;;;;;;4.37;3.90;;;;;;;13.81;71.41;95597.84;5031471;28;20178;-77
2021/08/27 08:04:45;;;;;;;6.77;3.70;;;;;;;14.22;70.04;95598.53;5032383;28;20195;-76
2021/08/27 08:07:10;;;;;;;5.77;3.63;;;;;;;14.25;69.13;95597.41;5041006;28;20204;-77
2021/08/27 08:09:35;;;;;;;4.83;3.67;;;;;;;14.12;68.53;95595.31;5052767;28;20642;-79
2021/08/27 08:12:01;;;;;;;5.97;3.93;;;;;;;14.28;68.81;95587.41;5034213;28;20204;-78
2021/08/27 08:14:26;;;;;;;5.73;4.07;;;;;;;14.47;68.57;95588.03;5051597;28;20660;-77
2021/08/27 08:16:51;;;;;;;5.30;3.77;;;;;;;14.63;67.39;95588.75;5052201;28;20185;-78
2021/08/27 08:19:17;;;;;;;4.67;3.27;;;;;;;14.47;66.52;95591.44;5035357;28;20215;-79
2021/08/27 08:21:42;;;;;;;6.73;3.27;;;;;;;14.58;66.32;95592.88;5035571;28;20660;-78
2021/08/27 08:24:07;;;;;;;5.53;3.90;;;;;;;14.34;66.08;95593.78;5051770;28;20205;-79
2021/08/27 08:26:33;;;;;;;4.73;3.30;;;;;;;13.90;66.13;95602.06;5034558;28;20185;-78
2021/08/27 08:28:59;;;;;;;4.57;3.60;;;;;;;13.92;66.25;95601.91;5052175;28;20212;-79
2021/08/27 08:31:24;;;;;;;11.13;3.87;;;;;;;13.91;66.94;95605.50;5034293;28;20538;-79
2021/08/27 08:33:51;;;;;;;6.93;3.97;;;;;;;14.12;66.39;95606.56;5052216;28;20251;-76
2021/08/27 08:36:17;;;;;;;7.07;4.87;;;;;;;14.22;66.52;95600.31;5036618;28;20233;-77
2021/08/27 08:38:43;;;;;;;7.57;4.80;;;;;;;14.35;65.74;95598.81;5047037;28;20222;-79
2021/08/27 08:41:08;;;;;;;7.55;4.00;;;;;;;14.70;65.56;95600.16;5072262;28;20220;-77
2021/08/27 08:43:34;;;;;;;5.80;3.47;;;;;;;14.58;65.02;95605.97;5055025;28;20285;-80
2021/08/27 08:45:59;;;;;;;5.80;3.00;;;;;;;14.42;64.29;95606.81;5021558;28;20174;-80
2021/08/27 08:48:26;;;;;;;4.77;2.80;;;;;;;14.51;64.18;95599.78;5037090;28;20205;-79
2021/08/27 08:50:52;;;;;;;5.63;2.67;;;;;;;14.72;63.31;95597.38;5036879;28;20170;-80
2021/08/27 08:53:22;;;;;;;4.87;3.03;;;;;;;14.76;64.07;95597.88;5035543;28;20284;-81
2021/08/27 08:55:47;;;;;;;3.53;2.87;;;;;;;15.19;63.45;95599.84;5051988;28;20194;-79
2021/08/27 08:58:12;;;;;;;5.37;2.67;;;;;;;15.20;62.36;95600.69;5052183;28;20300;-80
2021/08/27 09:00:38;;;;;;;4.00;2.47;;;;;;;15.40;61.69;95601.81;5035496;28;20181;-79
2021/08/27 09:03:04;;;;;;;4.03;2.40;;;;;;;15.52;60.77;95610.06;5035046;28;20178;-80
2021/08/27 09:05:29;;;;;;;6.65;2.15;;;;;;;15.48;60.68;95609.63;5035828;28;20576;-79
2021/08/27 09:07:55;;;;;;;3.42;1.88;;;;;;;15.27;60.03;95612.06;5035824;28;20206;-80
2021/08/27 09:10:21;;;;;;;4.80;2.05;;;;;;;15.01;59.56;95617.63;5052560;28;20189;-80
2021/08/27 09:12:50;;;;;;;3.90;1.95;;;;;;;15.21;60.45;95612.78;5036515;28;20633;-80
2021/08/27 09:15:20;;;;;;;4.18;2.22;;;;;;;15.26;60.29;95599.97;5039436;28;20169;-80
2021/08/27 09:17:48;;;;;;;4.70;1.73;;;;;;;15.66;60.43;95611.13;5056283;28;20213;-79
2021/08/27 09:20:15;;;;;;;3.53;1.80;;;;;;;15.72;58.00;95615.63;5022788;28;20182;-80
2021/08/27 09:22:52;;;;;;;3.28;1.92;;;;;;;14.87;56.11;95615.75;5022438;28;20177;-80
2021/08/27 09:25:22;;;;;;;3.10;2.05;;;;;;;14.59;57.72;95618.03;5038989;28;20212;-81
2021/08/27 09:28:45;;;;;;;3.40;1.90;;;;;;;15.00;58.42;95622.03;5029410;23;20235;-80
2021/08/27 09:31:13;;;;;;;2.75;1.90;;;;;;;15.59;58.12;95617.03;4934672;29;20205;-78
2021/08/27 09:41:00;;;;;;;2.90;1.83;;;;;;;14.61;59.44;95632.56;4933467;29;20193;-80
2021/08/27 09:43:54;;;;;;;4.35;1.98;;;;;;;14.57;59.29;95633.03;4880414;29;20664;-80
2021/08/27 09:47:01;;;;;;;;;;;;;;;;;;;;;
2021/08/27 09:50:26;;;;;;;6.43;2.50;;;;;;;14.43;63.08;95631.94;4876380;29;20199;-79
2021/08/27 09:57:36;;;;;;;3.90;1.93;;;;;;;14.68;61.00;95633.50;4815444;29;20242;-79
2021/08/27 10:04:44;;;;;;;2.83;1.60;;;;;;;15.53;57.06;95617.72;4733820;30;20336;-77
2021/08/27 10:07:27;;;;;;;8.27;1.92;;;;;;;15.90;56.45;95623.97;4684698;30;20235;-79
2021/08/27 10:10:04;;;;;;;6.10;1.95;;;;;;;15.70;57.20;95622.88;4696248;30;20199;-78
2021/08/27 10:19:24;;;;;;;4.55;1.98;;;;;;;15.09;59.32;95620.19;5041605;23;20319;-80
2021/08/27 10:22:06;;;;;;;3.13;1.92;;;;;;;15.26;59.13;95620.91;5032343;28;20244;-78
2021/08/27 10:25:11;;;;;;;3.65;2.30;;;;;;;15.72;58.27;95626.94;5017291;28;20194;-79
2021/08/27 10:49:30;;;;;;;;;;;;;;;;;;;;;
2021/08/27 10:52:57;;;;;;;6.00;2.33;;;;;;;14.97;60.77;95627.63;5013474;28;20191;-78
2021/08/27 10:59:35;;;;;;;3.93;2.10;;;;;;;14.85;62.76;95629.00;4919175;29;20585;-79
2021/08/27 11:05:36;;;;;;;4.97;2.40;;;;;;;14.77;62.55;95625.63;4804890;29;20224;-79
2021/08/27 11:09:17;;;;;;;;;;;;;;;;;;;;;
2021/08/27 11:11:44;;;;;;;4.53;2.38;;;;;;;15.06;61.79;95640.66;4786503;29;20198;-78
2021/08/27 11:14:20;;;;;;;5.73;2.53;;;;;;;15.06;62.22;95633.63;4762724;30;20252;-76
2021/08/27 11:17:00;;;;;;;7.55;2.63;;;;;;;15.13;61.36;95636.38;4764634;30;20736;-74
2021/08/27 11:19:30;;;;;;;6.18;2.35;;;;;;;15.34;60.01;95627.88;4763723;30;20674;-76
2021/08/27 11:22:07;;;;;;;6.60;2.47;;;;;;;15.52;60.55;95629.19;4763554;30;20372;-76
2021/08/27 11:24:33;;;;;;;3.75;2.38;;;;;;;15.77;60.68;95629.03;4749111;30;20610;-76
2021/08/27 11:27:06;;;;;;;3.83;2.40;;;;;;;15.67;59.04;95634.50;4764180;30;20230;-77
2021/08/27 11:29:32;;;;;;;3.28;2.05;;;;;;;15.84;58.49;95635.19;4795559;29;20209;-77
2021/08/27 11:31:57;;;;;;;4.78;2.42;;;;;;;15.65;57.24;95631.28;4825766;29;20193;-77
2021/08/27 11:34:26;;;;;;;4.47;1.90;;;;;;;15.93;57.54;95628.88;4857035;29;20675;-75
2021/08/27 11:36:51;;;;;;;3.95;2.08;;;;;;;16.14;57.04;95626.38;4848345;29;20227;-75
2021/08/27 11:39:16;;;;;;;4.75;2.55;;;;;;;16.00;56.09;95639.47;4912040;29;20209;-77
2021/08/27 11:41:42;;;;;;;5.63;2.45;;;;;;;15.99;57.08;95633.41;4934734;29;20217;-76
2021/08/27 11:44:10;;;;;;;5.57;2.08;;;;;;;16.06;54.83;95631.69;4943168;28;20680;-77
2021/08/27 11:46:37;;;;;;;2.83;1.98;;;;;;;16.38;55.15;95632.34;4955631;28;20268;-76
2021/08/27 11:49:23;;;;;;;4.88;1.80;;;;;;;16.30;54.45;95632.44;5031404;28;20674;-76
2021/08/27 11:52:12;;;;;;;3.47;2.03;;;;;;;16.46;53.64;95634.88;5015844;28;20178;-77
2021/08/27 11:54:38;;;;;;;5.63;1.85;;;;;;;16.64;53.76;95637.94;5020061;28;20236;-76
2021/08/27 11:57:03;;;;;;;3.58;1.65;;;;;;;16.70;54.13;95632.00;5030099;28;20265;-77
2021/08/27 11:59:28;;;;;;;4.15;1.90;;;;;;;16.81;54.75;95627.25;5013661;28;20185;-76
2021/08/27 12:01:54;;;;;;;2.55;1.63;;;;;;;17.04;52.80;95632.34;5013569;28;20183;-76
2021/08/27 12:04:30;;;;;;;4.30;1.70;;;;;;;16.84;52.20;95640.81;5001604;28;20600;-75
2021/08/27 12:07:16;;;;;;;5.38;1.80;;;;;;;16.24;54.28;95643.63;5016122;28;20797;-76
2021/08/27 12:09:41;;;;;;;3.67;1.90;;;;;;;16.05;54.31;95640.53;5012499;28;20213;-76
2021/08/27 12:12:28;;;;;;;4.38;2.00;;;;;;;15.70;55.14;95646.44;5012611;28;20669;-75
2021/08/27 12:14:53;;;;;;;3.50;2.20;;;;;;;15.87;56.12;95650.53;5030630;28;20177;-75
2021/08/27 12:17:24;;;;;;;2.45;2.03;;;;;;;15.80;57.23;95650.41;5012957;28;20202;-75
2021/08/27 12:19:50;;;;;;;2.72;1.73;;;;;;;15.74;57.19;95650.34;5013252;28;20179;-75
2021/08/27 12:22:17;;;;;;;5.88;2.22;;;;;;;15.79;57.15;95654.03;5032210;28;20176;-75
2021/08/27 12:24:44;;;;;;;4.03;2.10;;;;;;;15.76;57.50;95648.34;5032710;28;20239;-75
2021/08/27 12:27:09;;;;;;;3.03;2.17;;;;;;;15.99;57.99;95651.75;5032604;28;20248;-75
2021/08/27 12:29:34;;;;;;;4.25;2.30;;;;;;;16.18;56.92;95645.16;5049237;28;20198;-75
2021/08/27 12:32:00;;;;;;;7.13;2.08;;;;;;;15.91;56.93;95651.81;5015669;28;20193;-75
2021/08/27 12:34:26;;;;;;;3.42;1.90;;;;;;;15.88;56.94;95649.53;5056212;28;20630;-74
2021/08/27 12:36:51;;;;;;;2.95;1.92;;;;;;;16.20;56.80;95650.22;5021906;28;20182;-75
2021/08/27 12:39:17;;;;;;;4.82;2.10;;;;;;;16.12;56.33;95649.31;5033916;28;20200;-73
2021/08/27 12:41:42;;;;;;;6.35;2.00;;;;;;;16.41;55.69;95650.31;5051205;28;20201;-75
2021/08/27 12:44:09;;;;;;;6.18;2.10;;;;;;;16.74;56.79;95652.59;5005042;28;20194;-75
2021/08/27 12:46:34;;;;;;;4.57;2.30;;;;;;;17.12;55.72;95640.91;5017642;28;20182;-75
2021/08/27 12:49:20;;;;;;;4.70;1.90;;;;;;;17.05;53.48;95636.59;5032410;28;20553;-75
2021/08/27 12:51:48;;;;;;;4.20;2.00;;;;;;;17.16;53.90;95638.75;5021763;28;20208;-76
2021/08/27 12:54:14;;;;;;;4.75;2.10;;;;;;;17.32;53.94;95632.47;5032599;28;20182;-76
2021/08/27 12:56:39;;;;;;;4.57;1.95;;;;;;;17.56;52.62;95632.06;5036670;28;20638;-74
2021/08/27 12:59:16;;;;;;;3.28;1.67;;;;;;;17.95;52.55;95625.56;5036360;28;20243;-76
2021/08/27 13:01:41;;;;;;;5.20;1.75;;;;;;;17.84;52.64;95624.25;5035681;28;20181;-75
2021/08/27 13:04:07;;;;;;;3.42;1.75;;;;;;;17.77;53.32;95629.47;5036292;28;20216;-75
2021/08/27 13:06:39;;;;;;;1.90;1.38;;;;;;;17.61;50.72;95624.44;5054331;28;20189;-75
2021/08/27 13:09:11;;;;;;;3.75;2.00;;;;;;;18.16;51.20;95633.38;5026727;28;20221;-75
2021/08/27 13:11:53;;;;;;;4.47;2.13;;;;;;;17.87;50.64;95631.75;4996163;28;20193;-76
2021/08/27 13:14:30;;;;;;;3.47;1.63;;;;;;;17.51;51.97;95637.09;4996786;28;20167;-76
2021/08/27 13:17:00;;;;;;;3.55;1.65;;;;;;;17.36;50.88;95636.31;5014373;28;20179;-76
2021/08/27 13:19:47;;;;;;;5.60;2.00;;;;;;;17.30;51.57;95639.69;4980695;28;20542;-77
2021/08/27 13:22:16;;;;;;;5.32;2.00;;;;;;;17.50;52.19;95636.28;5014323;28;20202;-76
2021/08/27 13:24:41;;;;;;;3.70;1.90;;;;;;;17.49;52.09;95631.19;4998881;28;20691;-80
2021/08/27 13:27:06;;;;;;;2.33;2.03;;;;;;;17.34;50.77;95633.06;5013647;28;20187;-78
2021/08/27 13:29:32;;;;;;;3.78;1.88;;;;;;;17.02;51.71;95631.72;4997491;28;20185;-79
2021/08/27 13:31:57;;;;;;;4.53;2.13;;;;;;;17.24;52.26;95628.94;4998122;28;20175;-76
2021/08/27 13:34:22;;;;;;;5.20;1.80;;;;;;;16.86;54.08;95627.50;5034558;28;20212;-78
2021/08/27 13:36:48;;;;;;;2.92;1.83;;;;;;;17.48;54.09;95630.38;5023435;28;20198;-79
2021/08/27 13:39:13;;;;;;;3.10;2.15;;;;;;;17.51;52.05;95629.19;5013717;28;20227;-79
2021/08/27 13:41:40;;;;;;;4.38;2.08;;;;;;;17.28;52.66;95626.75;4981497;28;20186;-79
2021/08/27 13:44:06;;;;;;;4.55;2.00;;;;;;;17.48;53.18;95626.94;4996339;28;20662;-76
2021/08/27 13:46:35;;;;;;;1.92;1.80;;;;;;;17.71;51.47;95630.22;5018549;28;20187;-75
2021/08/27 13:49:01;;;;;;;4.20;2.05;;;;;;;18.09;50.43;95620.19;5010782;28;20209;-75
2021/08/27 13:51:26;;;;;;;3.08;2.15;;;;;;;18.08;50.71;95620.38;5014701;28;20191;-78
2021/08/27 13:53:52;;;;;;;3.75;1.83;;;;;;;18.22;49.79;95622.09;5000778;28;20182;-78
2021/08/27 13:56:17;;;;;;;3.15;1.90;;;;;;;18.17;48.23;95613.16;5016421;28;20186;-76
2021/08/27 13:58:42;;;;;;;4.18;2.13;;;;;;;18.07;49.18;95616.13;5033206;28;20194;-76
2021/08/27 14:01:08;;;;;;;3.85;1.80;;;;;;;18.56;49.69;95612.56;5016710;28;20186;-76
2021/08/27 14:03:33;;;;;;;3.72;2.08;;;;;;;18.61;49.10;95610.16;5043195;28;20202;-75
2021/08/27 14:05:58;;;;;;;1.75;1.65;;;;;;;18.91;48.29;95608.09;5041636;28;20689;-73
2021/08/27 14:08:24;;;;;;;3.08;1.98;;;;;;;18.66;48.53;95607.78;5042939;28;20225;-76
2021/08/27 14:10:49;;;;;;;2.22;2.03;;;;;;;18.96;47.34;95603.84;5028043;28;20280;-77
2021/08/27 14:13:14;;;;;;;4.00;2.05;;;;;;;19.06;47.52;95597.38;5020275;28;20181;-79
2021/08/27 14:15:40;;;;;;;2.22;1.80;;;;;;;18.45;48.87;95605.22;5034021;28;20174;-78
2021/08/27 14:18:05;;;;;;;3.25;2.00;;;;;;;18.53;47.62;95605.88;5033860;28;20241;-77
2021/08/27 14:20:30;;;;;;;5.55;2.13;;;;;;;18.29;48.15;95598.47;5016431;28;20171;-76
2021/08/27 14:22:55;;;;;;;4.28;1.98;;;;;;;18.62;47.38;95590.72;5016512;28;20286;-78
2021/08/27 14:25:21;;;;;;;2.25;2.05;;;;;;;18.55;46.38;95589.88;5034773;28;20191;-78
2021/08/27 14:27:46;;;;;;;4.07;2.00;;;;;;;19.04;46.58;95584.44;5022237;28;20214;-78
2021/08/27 14:30:14;;;;;;;4.00;2.35;;;;;;;18.86;47.27;95586.81;5022758;28;20174;-77